LEPA/PMI METAR and TAF weather

Enter ICAO airport designator
Station Type Date Time Source
LEPA METAR 2019/08/18 08:30 UTC NOAA

LEPA 180830Z 04004KT 330V110 CAVOK 30/21 Q1013 NOSIG


Station Type Date Time Source
LEPA Decoded METAR 2019/08/18 08:30 UTC NOAA

Station name not available
Aug 18, 2019 - 04:30 AM EDT / 2019.08.18 0830 UTC
Wind: from the NE (040 degrees) at 5 MPH (4 KT) (direction variable):0
Visibility: greater than 7 mile(s):0
Temperature: 86 F (30 C)
Dew Point: 69 F (21 C)
Relative Humidity: 58%
Pressure (altimeter): 29.91 in. Hg (1013 hPa)
ob: LEPA 180830Z 04004KT 330V110 CAVOK 30/21 Q1013 NOSIG
cycle: 8

Station Type Date Time Source
LEPA TAF 2019/08/18 06:27 UTC NOAA

TAF TAF LEPA 180500Z 1806/1906 VRB03KT 9999 FEW020 TX34/1812Z TN21/1806Z
BECMG 1809/1811 22010KT
BECMG 1814/1816 15010KT
BECMG 1819/1821 VRB03KT
BECMG 1903/1905 06007KT

Example: see airport list